createdAt,value
2018-11-06T00:00:55.036Z,11.27
2018-11-06T00:03:42.126Z,11.20
2018-11-06T00:06:12.186Z,10.94
2018-11-06T00:08:41.972Z,10.51
2018-11-06T00:11:12.446Z,10.37
2018-11-06T00:13:42.187Z,10.26
2018-11-06T00:16:11.967Z,10.23
2018-11-06T00:18:41.813Z,10.35
2018-11-06T00:21:11.523Z,10.56
2018-11-06T00:23:41.284Z,10.64
2018-11-06T00:26:11.003Z,10.76
2018-11-06T00:28:40.877Z,10.88
2018-11-06T00:31:10.591Z,10.94
2018-11-06T00:33:40.350Z,10.99
2018-11-06T00:36:10.276Z,11.12
2018-11-06T00:38:40.090Z,11.00
2018-11-06T00:41:09.810Z,10.81
2018-11-06T00:43:39.526Z,10.50
2018-11-06T00:46:11.412Z,10.20
2018-11-06T00:48:41.162Z,9.98
2018-11-06T00:51:10.890Z,9.97
2018-11-06T00:53:40.595Z,10.11
2018-11-06T00:56:10.551Z,10.31
2018-11-06T00:58:40.254Z,10.48
2018-11-06T01:01:10.102Z,10.62
2018-11-06T01:03:57.612Z,10.67
2018-11-06T01:06:27.335Z,10.79
2018-11-06T01:08:57.133Z,10.71
2018-11-06T01:11:27.046Z,10.70
2018-11-06T01:13:57.041Z,10.53
2018-11-06T01:16:26.868Z,10.05
2018-11-06T01:18:56.612Z,9.75
2018-11-06T01:21:26.386Z,9.56
2018-11-06T01:23:56.146Z,9.27
2018-11-06T01:26:25.929Z,9.06
2018-11-06T01:28:55.847Z,9.27
2018-11-06T01:31:25.668Z,9.52
2018-11-06T01:33:55.418Z,9.75
2018-11-06T01:36:25.121Z,9.90
2018-11-06T01:38:54.827Z,10.01
2018-11-06T01:41:24.738Z,10.13
2018-11-06T01:43:54.482Z,10.10
2018-11-06T01:46:24.346Z,10.03
2018-11-06T01:48:54.068Z,9.99
2018-11-06T01:51:26.501Z,9.35
2018-11-06T01:53:56.165Z,8.63
2018-11-06T01:56:25.997Z,8.07
2018-11-06T01:58:55.718Z,7.81
2018-11-06T02:01:25.961Z,7.91
2018-11-06T02:03:55.627Z,8.32
2018-11-06T02:06:25.386Z,8.72
2018-11-06T02:08:55.203Z,8.96
2018-11-06T02:11:24.892Z,9.15
2018-11-06T02:13:54.694Z,9.29
2018-11-06T02:16:24.390Z,9.48
2018-11-06T02:18:54.121Z,9.37
2018-11-06T02:21:23.925Z,9.24
2018-11-06T02:23:53.868Z,9.31
2018-11-06T02:26:23.760Z,8.74
2018-11-06T02:28:53.485Z,8.03
2018-11-06T02:31:23.203Z,7.51
2018-11-06T02:33:52.941Z,7.17
2018-11-06T02:36:22.781Z,7.30
2018-11-06T02:38:52.495Z,7.80
2018-11-06T02:41:22.402Z,8.22
2018-11-06T02:43:52.256Z,8.46
2018-11-06T02:46:22.092Z,8.73
2018-11-06T02:48:51.780Z,8.88
2018-11-06T02:51:21.656Z,8.90
2018-11-06T02:53:51.396Z,8.97
2018-11-06T02:56:21.090Z,8.85
2018-11-06T02:58:50.880Z,8.86
2018-11-06T03:01:20.607Z,8.69
2018-11-06T03:03:50.305Z,8.06
2018-11-06T03:06:20.046Z,7.42
2018-11-06T03:08:49.824Z,7.02
2018-11-06T03:11:19.751Z,7.13
2018-11-06T03:13:49.440Z,7.58
2018-11-06T03:16:19.136Z,7.99
2018-11-06T03:18:48.941Z,8.30
2018-11-06T03:21:18.635Z,8.59
2018-11-06T03:23:48.335Z,8.80
2018-11-06T03:26:18.032Z,8.94
2018-11-06T03:28:48.093Z,8.98
2018-11-06T03:31:18.228Z,9.04
2018-11-06T03:33:48.147Z,9.04
2018-11-06T03:36:18.165Z,9.08
2018-11-06T03:38:48.267Z,8.90
2018-11-06T03:41:18.256Z,8.33
2018-11-06T03:43:48.276Z,7.76
2018-11-06T03:46:18.361Z,7.54
2018-11-06T03:48:48.204Z,7.65
2018-11-06T03:51:18.296Z,8.02
2018-11-06T03:53:48.354Z,8.39
2018-11-06T03:56:25.197Z,8.61
2018-11-06T03:58:54.934Z,8.79
2018-11-06T04:01:24.650Z,9.00
2018-11-06T04:03:54.446Z,9.18
2018-11-06T04:07:06.275Z,9.41
2018-11-06T04:09:35.974Z,9.47
2018-11-06T04:12:05.826Z,9.54
2018-11-06T04:14:35.602Z,9.13
2018-11-06T04:17:05.506Z,8.50
2018-11-06T04:19:35.191Z,8.11
2018-11-06T04:22:04.953Z,8.04
2018-11-06T04:24:34.704Z,8.07
2018-11-06T04:27:04.434Z,8.36
2018-11-06T04:29:34.111Z,8.65
2018-11-06T04:32:03.828Z,8.89
2018-11-06T04:34:35.701Z,9.01
2018-11-06T04:37:05.425Z,9.22
2018-11-06T04:39:35.134Z,9.36
2018-11-06T04:42:04.961Z,9.49
2018-11-06T04:44:34.965Z,9.45
2018-11-06T04:47:04.738Z,9.64
2018-11-06T04:49:34.978Z,9.21
2018-11-06T04:52:04.311Z,8.93
2018-11-06T04:54:34.156Z,8.74
2018-11-06T04:57:03.956Z,8.43
2018-11-06T04:59:33.693Z,8.43
2018-11-06T05:02:03.500Z,8.65
2018-11-06T05:04:33.106Z,8.82
2018-11-06T05:07:02.912Z,9.09
2018-11-06T05:09:32.655Z,9.16
2018-11-06T05:12:02.369Z,9.22
2018-11-06T05:14:32.081Z,9.31
2018-11-06T05:17:01.816Z,9.45
2018-11-06T05:19:31.575Z,9.35
2018-11-06T05:22:01.437Z,9.38
2018-11-06T05:24:31.162Z,9.13
2018-11-06T05:27:00.881Z,8.80
2018-11-06T05:29:33.287Z,8.47
2018-11-06T05:32:03.201Z,8.36
2018-11-06T05:34:32.953Z,8.30
2018-11-06T05:37:02.869Z,8.47
2018-11-06T05:39:32.672Z,8.76
2018-11-06T05:42:02.330Z,8.98
2018-11-06T05:44:32.060Z,9.08
2018-11-06T05:47:01.844Z,9.23
2018-11-06T05:49:31.554Z,9.31
2018-11-06T05:52:01.321Z,9.24
2018-11-06T05:54:31.040Z,9.14
2018-11-06T05:57:00.769Z,9.19
2018-11-06T05:59:30.529Z,9.17
2018-11-06T06:02:00.251Z,8.69
2018-11-06T06:04:30.061Z,8.03
2018-11-06T06:06:59.805Z,7.52
2018-11-06T06:09:29.491Z,7.50
2018-11-06T06:11:59.350Z,7.82
2018-11-06T06:14:29.041Z,8.25
2018-11-06T06:16:58.930Z,8.58
2018-11-06T06:19:28.639Z,8.82
2018-11-06T06:21:58.356Z,9.01
2018-11-06T06:24:28.010Z,9.12
2018-11-06T06:26:57.817Z,9.14
2018-11-06T06:29:27.651Z,9.04
2018-11-06T06:31:57.475Z,9.03
2018-11-06T06:34:27.421Z,9.09
2018-11-06T06:36:57.126Z,8.68
2018-11-06T06:39:26.886Z,8.20
2018-11-06T06:41:56.585Z,7.64
2018-11-06T06:44:26.309Z,7.38
2018-11-06T06:46:56.067Z,7.47
2018-11-06T06:49:25.832Z,7.72
2018-11-06T06:51:55.514Z,8.05
2018-11-06T06:54:25.631Z,8.37
2018-11-06T06:56:55.162Z,8.46
2018-11-06T06:59:24.963Z,8.52
2018-11-06T07:01:54.690Z,8.72
2018-11-06T07:04:24.453Z,8.85
2018-11-06T07:06:56.536Z,8.68
2018-11-06T07:09:26.249Z,8.71
2018-11-06T07:11:55.964Z,8.39
2018-11-06T07:14:25.745Z,7.88
2018-11-06T07:16:55.501Z,7.42
2018-11-06T07:19:27.517Z,7.11
2018-11-06T07:21:57.214Z,7.11
2018-11-06T07:24:26.972Z,7.56
2018-11-06T07:26:56.745Z,8.03
2018-11-06T07:29:26.495Z,8.12
2018-11-06T07:31:56.219Z,8.32
2018-11-06T07:34:28.671Z,8.59
2018-11-06T07:36:58.385Z,8.86
2018-11-06T07:39:28.148Z,8.96
2018-11-06T07:41:57.874Z,8.95
2018-11-06T07:44:27.566Z,8.98
2018-11-06T07:46:57.341Z,9.06
2018-11-06T07:49:27.275Z,8.59
2018-11-06T07:51:56.975Z,8.22
2018-11-06T07:54:26.794Z,7.88
2018-11-06T07:56:56.598Z,7.86
2018-11-06T07:59:26.419Z,8.20
2018-11-06T08:01:56.460Z,8.63
2018-11-06T08:04:26.265Z,9.03
2018-11-06T08:06:57.312Z,9.22
2018-11-06T08:09:26.013Z,9.40
2018-11-06T08:11:58.439Z,9.63
2018-11-06T08:14:28.426Z,9.87
2018-11-06T08:16:58.245Z,10.01
2018-11-06T08:19:28.019Z,10.00
2018-11-06T08:21:57.822Z,10.07
2018-11-06T08:24:27.699Z,9.66
2018-11-06T08:26:57.398Z,9.49
2018-11-06T08:29:27.189Z,9.42
2018-11-06T08:31:57.221Z,9.26
2018-11-06T08:34:26.732Z,9.31
2018-11-06T08:36:56.441Z,9.79
2018-11-06T08:39:26.200Z,10.33
2018-11-06T08:41:56.074Z,10.59
2018-11-06T08:44:25.883Z,10.60
2018-11-06T08:46:55.649Z,10.79
2018-11-06T08:49:25.424Z,11.04
2018-11-06T08:51:55.455Z,11.28
2018-11-06T08:54:25.235Z,11.46
2018-11-06T08:56:54.904Z,11.71
2018-11-06T08:59:24.707Z,11.68
2018-11-06T09:01:54.441Z,11.36
2018-11-06T09:04:24.197Z,11.14
2018-11-06T09:06:53.893Z,10.98
2018-11-06T09:09:23.728Z,11.02
2018-11-06T09:11:53.439Z,11.12
2018-11-06T09:14:23.183Z,11.26
2018-11-06T09:16:53.263Z,11.49
2018-11-06T09:19:23.003Z,11.80
2018-11-06T09:21:52.714Z,12.08
2018-11-06T09:24:22.460Z,12.40
2018-11-06T09:26:52.154Z,12.63
2018-11-06T09:29:21.891Z,12.86
2018-11-06T09:31:51.780Z,13.23
2018-11-06T09:34:21.759Z,13.56
2018-11-06T09:36:51.817Z,13.51
2018-11-06T09:39:21.715Z,13.57
2018-11-06T09:41:51.917Z,13.65
2018-11-06T09:44:21.854Z,13.84
2018-11-06T09:46:51.983Z,14.17
2018-11-06T09:49:22.022Z,14.25
2018-11-06T09:51:51.970Z,14.39
2018-11-06T09:54:25.221Z,14.32
2018-11-06T09:56:55.019Z,14.40
2018-11-06T09:59:24.748Z,14.63
2018-11-06T10:01:54.454Z,14.59
2018-11-06T10:04:24.203Z,14.54
2018-11-06T10:06:54.244Z,14.69
2018-11-06T10:09:23.697Z,14.98
2018-11-06T10:11:53.532Z,15.25
2018-11-06T10:14:23.332Z,15.52
2018-11-06T10:16:53.075Z,15.64
2018-11-06T10:19:22.814Z,15.46
2018-11-06T10:21:52.570Z,15.31
2018-11-06T10:24:22.399Z,15.37
2018-11-06T10:26:52.560Z,15.55
2018-11-06T10:29:22.387Z,15.63
2018-11-06T10:31:52.662Z,15.92
2018-11-06T10:34:22.704Z,16.14
2018-11-06T10:36:52.634Z,16.50
2018-11-06T10:39:22.600Z,16.79
2018-11-06T10:41:53.670Z,16.99
2018-11-06T10:44:23.383Z,17.20
2018-11-06T10:46:53.099Z,17.34
2018-11-06T10:49:22.940Z,17.28
2018-11-06T10:51:52.729Z,17.23
2018-11-06T10:54:22.754Z,17.26
2018-11-06T10:56:52.820Z,17.24
2018-11-06T10:59:22.821Z,17.33
2018-11-06T11:02:10.211Z,17.47
2018-11-06T11:04:39.911Z,17.59
2018-11-06T11:07:09.720Z,17.82
2018-11-06T11:09:39.529Z,17.84
2018-11-06T11:12:09.249Z,17.83
2018-11-06T11:14:38.984Z,17.80
2018-11-06T11:17:08.823Z,17.68
2018-11-06T11:19:38.530Z,17.60
2018-11-06T11:22:08.248Z,17.92
2018-11-06T11:24:37.988Z,18.06
2018-11-06T11:27:08.531Z,18.10
2018-11-06T11:29:38.478Z,18.24
2018-11-06T11:32:08.402Z,18.30
2018-11-06T11:34:38.210Z,18.12
2018-11-06T11:37:08.000Z,18.13
2018-11-06T11:39:37.734Z,18.02
2018-11-06T11:42:07.945Z,18.00
2018-11-06T11:44:37.640Z,18.00
2018-11-06T11:47:07.434Z,18.02
2018-11-06T11:49:37.147Z,18.12
2018-11-06T11:52:06.919Z,18.30
2018-11-06T11:54:36.750Z,18.48
2018-11-06T11:57:06.627Z,18.78
2018-11-06T11:59:36.396Z,18.84
2018-11-06T12:02:06.258Z,18.92
2018-11-06T12:04:35.970Z,18.96
2018-11-06T12:07:05.744Z,19.02
2018-11-06T12:09:35.474Z,18.94
2018-11-06T12:12:05.259Z,18.90
2018-11-06T12:14:35.049Z,18.96
2018-11-06T12:17:04.979Z,19.19
2018-11-06T12:19:34.823Z,19.38
2018-11-06T12:22:04.515Z,19.49
2018-11-06T12:24:34.501Z,19.61
2018-11-06T12:27:04.165Z,19.60
2018-11-06T12:29:36.739Z,19.48
2018-11-06T12:32:06.558Z,19.49
2018-11-06T12:34:36.625Z,19.58
2018-11-06T12:37:06.457Z,19.65
2018-11-06T12:39:38.789Z,19.86
2018-11-06T12:42:08.528Z,19.92
2018-11-06T12:44:38.387Z,19.82
2018-11-06T12:47:09.989Z,19.94
2018-11-06T12:49:41.652Z,19.96
2018-11-06T12:52:11.363Z,20.05
2018-11-06T12:54:41.099Z,20.13
2018-11-06T12:57:10.992Z,20.11
2018-11-06T12:59:40.754Z,20.29
2018-11-06T13:02:10.489Z,20.34
2018-11-06T13:04:40.196Z,20.26
2018-11-06T13:07:10.006Z,20.17
2018-11-06T13:09:39.777Z,20.08
2018-11-06T13:12:09.623Z,19.96
2018-11-06T13:14:39.493Z,19.81
2018-11-06T13:17:09.480Z,19.79
2018-11-06T13:19:39.171Z,19.79
2018-11-06T13:22:09.210Z,19.85
2018-11-06T13:24:38.995Z,19.80
2018-11-06T13:27:08.739Z,19.88
2018-11-06T13:29:38.526Z,19.90
2018-11-06T13:32:08.240Z,19.96
2018-11-06T13:34:38.136Z,19.93
2018-11-06T13:37:07.913Z,19.93
2018-11-06T13:39:37.819Z,19.91
2018-11-06T13:42:07.673Z,19.93
2018-11-06T13:44:37.543Z,19.86
2018-11-06T13:47:07.108Z,19.86
2018-11-06T13:49:36.890Z,19.84
2018-11-06T13:52:06.823Z,19.75
2018-11-06T13:54:36.612Z,19.67
2018-11-06T13:57:06.393Z,19.43
2018-11-06T13:59:36.124Z,19.27
2018-11-06T14:02:06.269Z,19.06
2018-11-06T14:04:36.097Z,18.84
2018-11-06T14:07:05.978Z,18.79
2018-11-06T14:09:38.652Z,18.80
2018-11-06T14:12:08.376Z,18.80
2018-11-06T14:14:38.132Z,18.78
2018-11-06T14:17:07.923Z,18.85
2018-11-06T14:19:37.666Z,18.77
2018-11-06T14:22:07.538Z,18.52
2018-11-06T14:24:37.552Z,18.20
2018-11-06T14:27:07.362Z,18.27
2018-11-06T14:29:37.058Z,18.20
2018-11-06T14:32:06.818Z,18.09
2018-11-06T14:34:36.862Z,17.99
2018-11-06T14:37:06.667Z,17.73
2018-11-06T14:39:36.556Z,17.54
2018-11-06T14:42:06.551Z,17.33
2018-11-06T14:44:36.910Z,17.14
2018-11-06T14:47:06.903Z,17.19
2018-11-06T14:49:36.760Z,17.02
2018-11-06T14:52:06.596Z,16.77
2018-11-06T14:54:37.101Z,16.61
2018-11-06T14:57:06.887Z,16.47
2018-11-06T14:59:36.655Z,16.34
2018-11-06T15:02:06.448Z,16.23
2018-11-06T15:04:36.294Z,16.18
2018-11-06T15:07:06.312Z,16.26
2018-11-06T15:09:36.186Z,16.07
2018-11-06T15:12:06.018Z,16.04
2018-11-06T15:14:35.862Z,15.87
2018-11-06T15:17:05.727Z,15.79
2018-11-06T15:19:35.647Z,15.71
2018-11-06T15:22:05.526Z,15.50
2018-11-06T15:24:35.282Z,15.39
2018-11-06T15:27:04.983Z,15.11
2018-11-06T15:29:34.785Z,14.88
2018-11-06T15:32:07.604Z,14.73
2018-11-06T15:34:39.974Z,14.48
2018-11-06T15:37:09.673Z,14.29
2018-11-06T15:39:39.452Z,14.05
2018-11-06T15:42:09.313Z,13.82
2018-11-06T15:44:38.972Z,13.58
2018-11-06T15:47:08.720Z,13.40
2018-11-06T15:49:38.578Z,13.18
2018-11-06T15:52:08.368Z,13.01
2018-11-06T15:54:38.220Z,12.95
2018-11-06T15:57:07.895Z,12.77
2018-11-06T15:59:37.830Z,12.62
2018-11-06T16:02:07.898Z,12.53
2018-11-06T16:04:37.764Z,12.48
2018-11-06T16:07:08.236Z,12.44
2018-11-06T16:09:37.995Z,12.27
2018-11-06T16:12:07.856Z,12.17
2018-11-06T16:14:37.622Z,12.11
2018-11-06T16:17:07.822Z,11.96
2018-11-06T16:19:37.592Z,11.95
2018-11-06T16:22:07.466Z,11.91
2018-11-06T16:24:37.255Z,11.81
2018-11-06T16:27:07.346Z,11.69
2018-11-06T16:29:37.247Z,11.57
2018-11-06T16:32:06.945Z,11.57
2018-11-06T16:34:36.708Z,11.58
2018-11-06T16:37:06.743Z,11.37
2018-11-06T16:39:36.639Z,11.53
2018-11-06T16:42:06.563Z,11.62
2018-11-06T16:44:36.452Z,11.59
2018-11-06T16:47:06.323Z,11.63
2018-11-06T16:49:36.187Z,11.77
2018-11-06T16:52:08.167Z,12.19
2018-11-06T16:54:38.013Z,12.71
2018-11-06T16:57:07.859Z,13.03
2018-11-06T16:59:37.546Z,13.25
2018-11-06T17:02:07.358Z,13.14
2018-11-06T17:04:37.098Z,12.73
2018-11-06T17:07:07.008Z,12.22
2018-11-06T17:09:36.766Z,11.90
2018-11-06T17:12:06.497Z,11.64
2018-11-06T17:14:36.261Z,11.54
2018-11-06T17:17:06.365Z,11.28
2018-11-06T17:19:36.188Z,11.17
2018-11-06T17:22:05.922Z,11.17
2018-11-06T17:24:35.602Z,11.07
2018-11-06T17:27:05.406Z,10.88
2018-11-06T17:29:35.162Z,10.90
2018-11-06T17:32:05.022Z,10.80
2018-11-06T17:34:34.793Z,10.87
2018-11-06T17:37:04.573Z,11.06
2018-11-06T17:39:34.466Z,11.22
2018-11-06T17:42:04.181Z,11.41
2018-11-06T17:44:34.041Z,11.71
2018-11-06T17:47:03.882Z,12.09
2018-11-06T17:49:33.732Z,12.43
2018-11-06T17:52:03.468Z,12.66
2018-11-06T17:54:33.256Z,12.92
2018-11-06T17:57:03.229Z,12.99
2018-11-06T17:59:33.147Z,12.50
2018-11-06T18:02:03.038Z,11.98
2018-11-06T18:04:32.928Z,11.51
2018-11-06T18:07:02.471Z,11.20
2018-11-06T18:09:32.279Z,10.94
2018-11-06T18:12:02.074Z,10.79
2018-11-06T18:14:31.893Z,10.62
2018-11-06T18:17:01.706Z,10.73
2018-11-06T18:19:31.738Z,10.79
2018-11-06T18:22:01.449Z,10.78
2018-11-06T18:24:31.249Z,10.75
2018-11-06T18:27:01.001Z,11.02
2018-11-06T18:29:30.886Z,11.32
2018-11-06T18:32:00.612Z,11.60
2018-11-06T18:34:30.384Z,11.99
2018-11-06T18:37:00.263Z,12.37
2018-11-06T18:39:30.005Z,12.63
2018-11-06T18:41:59.738Z,12.89
2018-11-06T18:44:29.446Z,13.12
2018-11-06T18:46:59.252Z,13.03
2018-11-06T18:49:28.991Z,12.89
2018-11-06T18:51:58.783Z,12.86
2018-11-06T18:54:28.651Z,12.84
2018-11-06T18:56:58.397Z,12.96
2018-11-06T18:59:28.134Z,13.02
2018-11-06T19:01:58.186Z,13.19
2018-11-06T19:04:28.319Z,13.45
2018-11-06T19:06:58.272Z,13.51
2018-11-06T19:09:28.282Z,13.51
2018-11-06T19:11:58.275Z,13.46
2018-11-06T19:14:28.297Z,13.59
2018-11-06T19:16:58.361Z,13.67
2018-11-06T19:19:28.343Z,13.63
2018-11-06T19:21:58.494Z,13.43
2018-11-06T19:24:28.354Z,13.40
2018-11-06T19:26:58.662Z,13.40
2018-11-06T19:29:28.466Z,13.35
2018-11-06T19:31:58.484Z,13.42
2018-11-06T19:34:28.471Z,13.52
2018-11-06T19:36:58.481Z,13.54
2018-11-06T19:39:28.451Z,13.60
2018-11-06T19:41:58.627Z,13.54
2018-11-06T19:44:28.612Z,13.54
2018-11-06T19:46:58.523Z,13.53
2018-11-06T19:49:28.660Z,13.56
2018-11-06T19:51:58.525Z,13.62
2018-11-06T19:54:28.651Z,13.51
2018-11-06T19:56:58.699Z,13.54
2018-11-06T19:59:28.770Z,13.56
2018-11-06T20:01:58.899Z,13.53
2018-11-06T20:04:28.836Z,13.56
2018-11-06T20:06:58.857Z,13.57
2018-11-06T20:09:28.844Z,13.65
2018-11-06T20:11:59.019Z,13.71
2018-11-06T20:14:29.049Z,13.58
2018-11-06T20:16:58.847Z,13.36
2018-11-06T20:19:28.958Z,13.33
2018-11-06T20:21:58.876Z,13.46
2018-11-06T20:24:29.103Z,13.49
2018-11-06T20:26:58.846Z,13.25
2018-11-06T20:29:29.152Z,13.04
2018-11-06T20:31:59.059Z,12.91
2018-11-06T20:34:29.028Z,12.83
2018-11-06T20:36:59.012Z,12.45
2018-11-06T20:39:29.119Z,12.32
2018-11-06T20:41:59.238Z,12.28
2018-11-06T20:44:29.220Z,12.32
2018-11-06T20:46:59.204Z,12.25
2018-11-06T20:49:29.204Z,12.22
2018-11-06T20:51:59.142Z,12.06
2018-11-06T20:54:29.195Z,11.88
2018-11-06T20:56:59.197Z,11.72
2018-11-06T20:59:29.237Z,11.44
2018-11-06T21:01:59.273Z,11.22
2018-11-06T21:04:29.393Z,11.06
2018-11-06T21:06:59.432Z,10.89
2018-11-06T21:09:29.303Z,10.81
2018-11-06T21:11:59.352Z,10.84
2018-11-06T21:14:29.470Z,11.13
2018-11-06T21:16:59.326Z,11.52
2018-11-06T21:19:29.505Z,11.79
2018-11-06T21:21:59.393Z,12.05
2018-11-06T21:24:29.436Z,12.39
2018-11-06T21:26:59.896Z,12.72
2018-11-06T21:29:29.605Z,12.81
2018-11-06T21:31:59.548Z,12.69
2018-11-06T21:34:29.691Z,12.64
2018-11-06T21:36:59.639Z,12.58
2018-11-06T21:39:29.723Z,12.63
2018-11-06T21:41:59.700Z,12.54
2018-11-06T21:44:29.585Z,12.66
2018-11-06T21:46:59.811Z,12.65
2018-11-06T21:49:29.731Z,12.59
2018-11-06T21:51:59.823Z,12.60
2018-11-06T21:54:29.921Z,12.68
2018-11-06T21:56:59.877Z,12.72
2018-11-06T21:59:29.792Z,12.71
2018-11-06T22:02:00.003Z,12.64
2018-11-06T22:04:29.811Z,12.77
2018-11-06T22:06:59.906Z,12.94
2018-11-06T22:09:29.897Z,13.12
2018-11-06T22:11:59.909Z,13.30
2018-11-06T22:14:29.943Z,13.44
2018-11-06T22:16:59.801Z,13.21
2018-11-06T22:19:30.052Z,12.90
2018-11-06T22:21:59.930Z,12.78
2018-11-06T22:24:30.176Z,12.61
2018-11-06T22:27:00.033Z,12.43
2018-11-06T22:29:30.052Z,12.51
2018-11-06T22:32:00.092Z,12.72
2018-11-06T22:34:29.948Z,12.85
2018-11-06T22:37:00.247Z,12.81
2018-11-06T22:39:30.308Z,12.86
2018-11-06T22:42:00.301Z,12.97
2018-11-06T22:44:30.204Z,12.82
2018-11-06T22:47:00.417Z,12.77
2018-11-06T22:49:30.298Z,12.65
2018-11-06T22:52:00.405Z,12.61
2018-11-06T22:54:30.293Z,12.67
2018-11-06T22:57:00.480Z,12.60
2018-11-06T22:59:30.497Z,12.57
2018-11-06T23:02:00.391Z,12.60
2018-11-06T23:04:30.401Z,12.76
2018-11-06T23:07:00.576Z,12.91
2018-11-06T23:09:30.561Z,13.09
2018-11-06T23:12:00.446Z,13.26
2018-11-06T23:14:30.527Z,13.09
2018-11-06T23:17:00.520Z,12.82
2018-11-06T23:19:30.587Z,12.60
2018-11-06T23:22:00.746Z,12.51
2018-11-06T23:24:30.713Z,12.30
2018-11-06T23:27:00.778Z,12.03
2018-11-06T23:29:30.792Z,11.92
2018-11-06T23:32:00.742Z,11.77
2018-11-06T23:34:30.863Z,11.52
2018-11-06T23:37:01.031Z,11.55
2018-11-06T23:39:30.846Z,11.47
2018-11-06T23:42:00.931Z,11.37
2018-11-06T23:44:31.152Z,11.49
2018-11-06T23:47:00.996Z,11.71
2018-11-06T23:49:31.111Z,11.91
2018-11-06T23:52:00.907Z,12.11
2018-11-06T23:54:31.149Z,12.21
2018-11-06T23:57:01.100Z,11.80
2018-11-06T23:59:31.107Z,11.16
